createdAt,value
2019-05-20T00:02:24.389Z,13.81
2019-05-20T00:04:42.524Z,13.82
2019-05-20T00:07:09.984Z,13.79
2019-05-20T00:09:37.702Z,13.70
2019-05-20T00:12:05.164Z,13.69
2019-05-20T00:14:32.430Z,13.65
2019-05-20T00:17:01.647Z,13.60
2019-05-20T00:19:29.559Z,13.57
2019-05-20T00:21:58.146Z,13.53
2019-05-20T00:24:25.961Z,13.49
2019-05-20T00:26:53.429Z,13.40
2019-05-20T00:29:21.274Z,13.36
2019-05-20T00:31:48.635Z,13.37
2019-05-20T00:34:32.715Z,13.34
2019-05-20T00:36:47.753Z,13.33
2019-05-20T00:39:19.740Z,13.24
2019-05-20T00:41:47.609Z,13.22
2019-05-20T00:44:16.196Z,13.16
2019-05-20T00:46:44.213Z,13.15
2019-05-20T00:49:11.745Z,13.19
2019-05-20T00:51:39.592Z,13.06
2019-05-20T00:54:07.453Z,13.15
2019-05-20T00:56:35.968Z,13.09
2019-05-20T00:59:04.004Z,12.96
2019-05-20T01:01:33.343Z,13.07
2019-05-20T01:04:00.689Z,13.15
2019-05-20T01:06:28.557Z,12.91
2019-05-20T01:08:56.177Z,12.96
2019-05-20T01:11:23.680Z,12.83
2019-05-20T01:13:52.373Z,12.86
2019-05-20T01:16:20.349Z,12.98
2019-05-20T01:18:47.700Z,13.28
2019-05-20T01:21:15.052Z,13.43
2019-05-20T01:23:45.499Z,13.46
2019-05-20T01:26:13.292Z,13.42
2019-05-20T01:28:40.803Z,13.44
2019-05-20T01:31:08.474Z,13.38
2019-05-20T01:33:35.960Z,13.35
2019-05-20T01:36:03.930Z,13.24
2019-05-20T01:38:31.494Z,13.21
2019-05-20T01:40:58.945Z,13.12
2019-05-20T01:43:26.560Z,13.11
2019-05-20T01:45:54.493Z,13.08
2019-05-20T01:48:22.041Z,12.91
2019-05-20T01:50:49.488Z,12.99
2019-05-20T01:53:17.464Z,12.46
2019-05-20T01:55:45.225Z,12.73
2019-05-20T01:58:13.053Z,12.89
2019-05-20T02:00:42.727Z,12.83
2019-05-20T02:03:10.169Z,12.74
2019-05-20T02:05:38.114Z,12.42
2019-05-20T02:08:05.731Z,12.16
2019-05-20T02:10:33.177Z,12.55
2019-05-20T02:13:00.632Z,12.65
2019-05-20T02:15:37.925Z,12.73
2019-05-20T02:18:05.317Z,12.71
2019-05-20T02:20:32.669Z,12.71
2019-05-20T02:23:20.809Z,12.43
2019-05-20T02:25:49.706Z,12.69
2019-05-20T02:28:17.263Z,12.68
2019-05-20T02:30:45.441Z,12.66
2019-05-20T02:33:12.736Z,12.61
2019-05-20T02:35:40.246Z,12.53
2019-05-20T02:38:07.624Z,12.65
2019-05-20T02:40:35.586Z,12.54
2019-05-20T02:43:02.947Z,12.55
2019-05-20T02:45:30.420Z,12.68
2019-05-20T02:47:57.789Z,12.73
2019-05-20T02:50:25.757Z,12.71
2019-05-20T02:52:53.415Z,12.73
2019-05-20T02:55:21.003Z,12.74
2019-05-20T02:57:48.326Z,12.73
2019-05-20T03:00:17.130Z,12.69
2019-05-20T03:02:44.695Z,12.59
2019-05-20T03:05:12.410Z,12.58
2019-05-20T03:07:39.712Z,12.54
2019-05-20T03:10:09.227Z,12.51
2019-05-20T03:12:36.716Z,12.53
2019-05-20T03:15:04.783Z,12.54
2019-05-20T03:17:32.835Z,12.51
2019-05-20T03:20:00.199Z,12.49
2019-05-20T03:22:27.616Z,12.57
2019-05-20T03:24:55.094Z,12.56
2019-05-20T03:27:23.066Z,12.54
2019-05-20T03:29:50.429Z,12.47
2019-05-20T03:32:18.080Z,12.55
2019-05-20T03:34:56.951Z,12.53
2019-05-20T03:37:14.742Z,12.35
2019-05-20T03:39:42.088Z,12.10
2019-05-20T03:42:09.643Z,12.01
2019-05-20T03:44:37.413Z,12.15
2019-05-20T03:47:04.770Z,12.30
2019-05-20T03:49:32.137Z,12.43
2019-05-20T03:52:00.906Z,12.50
2019-05-20T03:54:28.569Z,12.52
2019-05-20T03:56:56.134Z,12.57
2019-05-20T03:59:23.542Z,12.00
2019-05-20T04:01:51.171Z,11.94
2019-05-20T04:04:18.614Z,12.11
2019-05-20T04:06:45.991Z,12.43
2019-05-20T04:09:13.242Z,12.31
2019-05-20T04:11:40.710Z,12.37
2019-05-20T04:14:08.166Z,12.14
2019-05-20T04:16:35.944Z,12.56
2019-05-20T04:19:03.365Z,13.03
2019-05-20T04:21:31.111Z,13.26
2019-05-20T04:24:01.289Z,13.37
2019-05-20T04:26:27.846Z,13.46
2019-05-20T04:28:55.454Z,13.52
2019-05-20T04:31:22.827Z,13.61
2019-05-20T04:33:50.577Z,13.62
2019-05-20T04:36:17.909Z,13.29
2019-05-20T04:38:45.808Z,13.34
2019-05-20T04:41:13.681Z,13.51
2019-05-20T04:43:41.876Z,12.98
2019-05-20T04:46:09.233Z,12.58
2019-05-20T04:48:37.827Z,12.70
2019-05-20T04:51:05.304Z,13.01
2019-05-20T04:53:36.442Z,13.33
2019-05-20T04:56:05.567Z,13.70
2019-05-20T04:58:32.885Z,13.85
2019-05-20T05:01:02.686Z,13.68
2019-05-20T05:03:29.946Z,13.85
2019-05-20T05:05:59.381Z,14.00
2019-05-20T05:08:28.066Z,14.07
2019-05-20T05:10:55.781Z,14.05
2019-05-20T05:13:23.567Z,13.77
2019-05-20T05:15:51.275Z,13.79
2019-05-20T05:18:19.412Z,13.96
2019-05-20T05:20:46.984Z,14.03
2019-05-20T05:23:14.539Z,14.05
2019-05-20T05:25:42.102Z,13.94
2019-05-20T05:28:10.167Z,14.09
2019-05-20T05:30:38.794Z,13.56
2019-05-20T05:33:06.225Z,13.66
2019-05-20T05:35:33.503Z,13.89
2019-05-20T05:38:02.002Z,13.76
2019-05-20T05:40:31.001Z,13.94
2019-05-20T05:42:58.540Z,13.64
2019-05-20T05:45:30.261Z,13.92
2019-05-20T05:47:58.471Z,13.63
2019-05-20T05:50:26.550Z,13.28
2019-05-20T05:52:55.747Z,13.51
2019-05-20T05:55:23.225Z,13.70
2019-05-20T05:57:51.215Z,13.11
2019-05-20T06:00:19.724Z,12.95
2019-05-20T06:02:47.175Z,13.08
2019-05-20T06:05:14.641Z,13.44
2019-05-20T06:07:42.499Z,13.46
2019-05-20T06:10:10.191Z,13.27
2019-05-20T06:12:37.621Z,13.54
2019-05-20T06:15:05.333Z,13.97
2019-05-20T06:17:33.015Z,13.98
2019-05-20T06:20:00.515Z,14.07
2019-05-20T06:22:28.025Z,13.30
2019-05-20T06:25:05.879Z,13.45
2019-05-20T06:27:42.101Z,13.99
2019-05-20T06:30:10.804Z,14.20
2019-05-20T06:32:40.729Z,14.39
2019-05-20T06:35:08.742Z,14.11
2019-05-20T06:37:39.984Z,14.03
2019-05-20T06:40:07.652Z,14.41
2019-05-20T06:42:36.060Z,14.01
2019-05-20T06:45:04.961Z,14.33
2019-05-20T06:47:33.104Z,14.22
2019-05-20T06:50:00.475Z,14.45
2019-05-20T06:52:35.934Z,13.91
2019-05-20T06:54:58.260Z,13.99
2019-05-20T06:57:25.774Z,14.34
2019-05-20T06:59:53.338Z,14.22
2019-05-20T07:02:21.296Z,14.52
2019-05-20T07:04:49.273Z,13.78
2019-05-20T07:07:21.712Z,14.03
2019-05-20T07:09:49.076Z,14.08
2019-05-20T07:12:16.521Z,13.96
2019-05-20T07:14:44.608Z,14.06
2019-05-20T07:17:11.953Z,13.92
2019-05-20T07:19:39.944Z,14.03
2019-05-20T07:22:07.585Z,14.38
2019-05-20T07:24:35.052Z,14.28
2019-05-20T07:27:02.507Z,14.21
2019-05-20T07:29:29.901Z,14.27
2019-05-20T07:31:57.226Z,14.39
2019-05-20T07:34:25.752Z,14.42
2019-05-20T07:37:03.230Z,14.42
2019-05-20T07:39:25.940Z,14.52
2019-05-20T07:41:53.637Z,14.62
2019-05-20T07:44:21.246Z,14.74
2019-05-20T07:46:49.097Z,14.58
2019-05-20T07:49:17.155Z,14.80
2019-05-20T07:51:46.014Z,14.91
2019-05-20T07:54:18.240Z,14.73
2019-05-20T07:56:49.081Z,14.51
2019-05-20T07:59:20.030Z,14.74
2019-05-20T08:01:47.821Z,14.79
2019-05-20T08:04:15.232Z,15.15
2019-05-20T08:06:43.022Z,14.94
2019-05-20T08:09:10.576Z,15.09
2019-05-20T08:11:38.207Z,14.89
2019-05-20T08:14:05.828Z,15.26
2019-05-20T08:16:33.896Z,15.24
2019-05-20T08:19:01.422Z,15.02
2019-05-20T08:21:29.082Z,15.34
2019-05-20T08:23:56.671Z,14.89
2019-05-20T08:26:24.371Z,14.99
2019-05-20T08:28:51.914Z,15.13
2019-05-20T08:31:19.502Z,14.95
2019-05-20T08:33:47.383Z,15.09
2019-05-20T08:36:15.152Z,15.40
2019-05-20T08:38:42.501Z,15.19
2019-05-20T08:41:10.146Z,15.31
2019-05-20T08:43:37.957Z,15.40
2019-05-20T08:46:05.525Z,15.70
2019-05-20T08:48:34.620Z,15.52
2019-05-20T08:51:02.149Z,15.37
2019-05-20T08:53:29.838Z,15.27
2019-05-20T08:55:57.284Z,15.39
2019-05-20T08:58:25.065Z,15.29
2019-05-20T09:00:52.633Z,15.73
2019-05-20T09:03:20.283Z,16.03
2019-05-20T09:05:47.635Z,15.59
2019-05-20T09:08:14.988Z,15.66
2019-05-20T09:10:42.545Z,15.10
2019-05-20T09:13:10.015Z,15.39
2019-05-20T09:15:37.359Z,15.33
2019-05-20T09:18:04.837Z,15.80
2019-05-20T09:20:32.703Z,15.55
2019-05-20T09:23:02.670Z,15.58
2019-05-20T09:25:30.742Z,15.81
2019-05-20T09:27:58.605Z,15.80
2019-05-20T09:30:25.992Z,15.91
2019-05-20T09:32:53.769Z,15.56
2019-05-20T09:35:21.346Z,16.35
2019-05-20T09:37:49.365Z,16.56
2019-05-20T09:40:34.094Z,16.77
2019-05-20T09:43:01.935Z,16.61
2019-05-20T09:45:31.627Z,16.74
2019-05-20T09:47:59.655Z,16.52
2019-05-20T09:50:27.357Z,17.01
2019-05-20T09:52:55.290Z,16.55
2019-05-20T09:55:22.915Z,16.48
2019-05-20T09:57:50.404Z,16.65
2019-05-20T10:00:19.256Z,16.20
2019-05-20T10:02:47.241Z,16.34
2019-05-20T10:05:15.002Z,15.58
2019-05-20T10:07:42.662Z,15.91
2019-05-20T10:10:10.419Z,15.95
2019-05-20T10:12:46.259Z,16.33
2019-05-20T10:15:09.088Z,16.67
2019-05-20T10:17:36.676Z,16.40
2019-05-20T10:20:04.949Z,16.54
2019-05-20T10:22:32.566Z,16.74
2019-05-20T10:25:00.080Z,16.41
2019-05-20T10:27:27.750Z,16.49
2019-05-20T10:29:55.958Z,16.52
2019-05-20T10:32:23.479Z,16.70
2019-05-20T10:34:51.042Z,16.87
2019-05-20T10:37:18.409Z,16.75
2019-05-20T10:39:47.222Z,17.02
2019-05-20T10:42:14.581Z,17.08
2019-05-20T10:44:44.915Z,17.09
2019-05-20T10:47:14.210Z,16.87
2019-05-20T10:49:42.182Z,17.66
2019-05-20T10:52:09.534Z,17.46
2019-05-20T10:54:38.735Z,17.56
2019-05-20T10:57:07.945Z,17.60
2019-05-20T10:59:35.698Z,17.84
2019-05-20T11:02:03.187Z,17.51
2019-05-20T11:04:30.727Z,17.15
2019-05-20T11:06:58.050Z,17.32
2019-05-20T11:09:26.162Z,17.58
2019-05-20T11:11:53.717Z,17.26
2019-05-20T11:14:21.371Z,17.94
2019-05-20T11:16:48.934Z,17.31
2019-05-20T11:19:16.805Z,17.63
2019-05-20T11:21:44.152Z,17.47
2019-05-20T11:24:11.811Z,18.17
2019-05-20T11:26:39.478Z,18.42
2019-05-20T11:29:07.677Z,18.09
2019-05-20T11:31:35.274Z,17.52
2019-05-20T11:34:02.776Z,18.19
2019-05-20T11:36:30.122Z,17.65
2019-05-20T11:38:57.988Z,18.01
2019-05-20T11:41:52.018Z,18.05
2019-05-20T11:43:58.334Z,17.95
2019-05-20T11:46:25.719Z,18.36
2019-05-20T11:48:53.555Z,18.36
2019-05-20T11:51:21.026Z,18.61
2019-05-20T11:53:49.033Z,18.56
2019-05-20T11:56:16.546Z,18.68
2019-05-20T11:58:44.539Z,18.59
2019-05-20T12:01:12.089Z,18.38
2019-05-20T12:03:39.416Z,18.77
2019-05-20T12:06:07.671Z,19.35
2019-05-20T12:08:35.410Z,18.70
2019-05-20T12:11:02.675Z,19.36
2019-05-20T12:13:30.625Z,19.19
2019-05-20T12:15:58.038Z,19.67
2019-05-20T12:18:25.453Z,19.65
2019-05-20T12:20:53.298Z,19.07
2019-05-20T12:23:21.335Z,18.72
2019-05-20T12:25:49.137Z,18.80
2019-05-20T12:28:16.598Z,19.20
2019-05-20T12:30:44.063Z,19.30
2019-05-20T12:33:19.875Z,19.24
2019-05-20T12:35:41.330Z,19.43
2019-05-20T12:38:08.772Z,18.80
2019-05-20T12:40:36.258Z,18.22
2019-05-20T12:43:05.250Z,18.09
2019-05-20T12:45:32.714Z,18.22
2019-05-20T12:48:00.183Z,18.91
2019-05-20T12:50:27.565Z,18.62
2019-05-20T12:52:54.906Z,18.61
2019-05-20T12:55:22.857Z,18.89
2019-05-20T12:57:50.415Z,18.34
2019-05-20T13:00:18.802Z,18.47
2019-05-20T13:02:46.152Z,18.51
2019-05-20T13:05:14.520Z,18.40
2019-05-20T13:07:41.882Z,18.37
2019-05-20T13:10:27.014Z,18.13
2019-05-20T13:12:39.202Z,18.29
2019-05-20T13:15:07.726Z,18.86
2019-05-20T13:17:35.357Z,19.51
2019-05-20T13:20:03.578Z,19.12
2019-05-20T13:22:31.344Z,18.36
2019-05-20T13:24:58.705Z,17.71
2019-05-20T13:27:27.186Z,17.80
2019-05-20T13:29:54.641Z,18.14
2019-05-20T13:32:22.305Z,18.27
2019-05-20T13:34:49.862Z,18.43
2019-05-20T13:37:17.474Z,18.06
2019-05-20T13:39:44.876Z,18.00
2019-05-20T13:42:12.658Z,17.84
2019-05-20T13:44:41.586Z,18.35
2019-05-20T13:47:08.993Z,18.31
2019-05-20T13:49:36.505Z,18.17
2019-05-20T13:52:03.999Z,18.75
2019-05-20T13:54:31.472Z,18.23
2019-05-20T13:56:58.928Z,18.12
2019-05-20T13:59:26.790Z,18.10
2019-05-20T14:01:54.249Z,18.14
2019-05-20T14:04:21.896Z,18.93
2019-05-20T14:06:49.675Z,18.59
2019-05-20T14:09:24.124Z,19.01
2019-05-20T14:12:05.868Z,18.82
2019-05-20T14:14:33.879Z,18.87
2019-05-20T14:17:01.876Z,18.78
2019-05-20T14:19:29.390Z,18.41
2019-05-20T14:21:56.754Z,18.85
2019-05-20T14:24:25.427Z,18.69
2019-05-20T14:26:53.262Z,18.61
2019-05-20T14:29:22.609Z,18.90
2019-05-20T14:31:49.963Z,18.60
2019-05-20T14:34:17.398Z,18.78
2019-05-20T14:36:45.902Z,18.61
2019-05-20T14:39:13.562Z,18.20
2019-05-20T14:41:41.479Z,18.62
2019-05-20T14:44:08.890Z,19.28
2019-05-20T14:46:37.267Z,19.58
2019-05-20T14:49:05.195Z,19.09
2019-05-20T14:51:40.917Z,18.98
2019-05-20T14:54:08.605Z,18.53
2019-05-20T14:56:36.423Z,19.51
2019-05-20T14:59:04.524Z,19.60
2019-05-20T15:01:32.067Z,19.39
2019-05-20T15:04:01.635Z,19.35
2019-05-20T15:06:29.115Z,19.43
2019-05-20T15:08:57.174Z,19.78
2019-05-20T15:11:37.018Z,19.36
2019-05-20T15:13:53.840Z,19.33
2019-05-20T15:16:21.817Z,19.26
2019-05-20T15:18:49.570Z,19.70
2019-05-20T15:21:16.932Z,19.36
2019-05-20T15:23:44.623Z,19.35
2019-05-20T15:26:12.464Z,19.44
2019-05-20T15:28:42.396Z,19.03
2019-05-20T15:31:09.994Z,19.28
2019-05-20T15:33:37.635Z,19.07
2019-05-20T15:36:06.108Z,19.22
2019-05-20T15:38:34.203Z,19.66
2019-05-20T15:41:01.506Z,19.45
2019-05-20T15:43:28.991Z,19.86
2019-05-20T15:45:58.306Z,19.75
2019-05-20T15:48:26.827Z,19.82
2019-05-20T15:50:54.231Z,19.88
2019-05-20T15:53:21.661Z,19.98
2019-05-20T15:55:49.156Z,19.98
2019-05-20T15:58:16.915Z,20.44
2019-05-20T16:00:44.316Z,20.50
2019-05-20T16:03:12.012Z,20.09
2019-05-20T16:05:39.298Z,20.06
2019-05-20T16:08:07.273Z,20.36
2019-05-20T16:10:34.719Z,20.67
2019-05-20T16:13:02.276Z,20.16
2019-05-20T16:15:30.148Z,20.11
2019-05-20T16:17:57.824Z,20.47
2019-05-20T16:20:25.478Z,20.65
2019-05-20T16:22:52.833Z,20.41
2019-05-20T16:25:20.600Z,21.14
2019-05-20T16:27:48.016Z,20.90
2019-05-20T16:30:15.476Z,21.04
2019-05-20T16:32:42.795Z,20.63
2019-05-20T16:35:12.513Z,20.75
2019-05-20T16:37:42.429Z,21.21
2019-05-20T16:40:10.204Z,21.39
2019-05-20T16:42:44.301Z,21.83
2019-05-20T16:45:19.623Z,22.02
2019-05-20T16:47:47.408Z,21.76
2019-05-20T16:50:15.973Z,21.81
2019-05-20T16:52:45.690Z,21.78
2019-05-20T16:55:16.098Z,22.06
2019-05-20T16:57:43.681Z,22.22
2019-05-20T17:00:29.751Z,22.09
2019-05-20T17:02:43.538Z,21.46
2019-05-20T17:05:11.858Z,21.44
2019-05-20T17:07:39.171Z,21.53
2019-05-20T17:10:07.210Z,21.24
2019-05-20T17:12:34.521Z,21.22
2019-05-20T17:15:02.062Z,20.92
2019-05-20T17:17:29.534Z,20.42
2019-05-20T17:19:57.573Z,20.64
2019-05-20T17:22:25.065Z,19.98
2019-05-20T17:24:52.411Z,19.99
2019-05-20T17:27:19.672Z,19.94
2019-05-20T17:29:47.434Z,20.13
2019-05-20T17:32:14.789Z,19.71
2019-05-20T17:34:42.257Z,19.98
2019-05-20T17:37:10.005Z,19.56
2019-05-20T17:39:37.922Z,19.43
2019-05-20T17:42:05.585Z,19.39
2019-05-20T17:44:33.280Z,19.41
2019-05-20T17:47:00.727Z,19.35
2019-05-20T17:49:28.263Z,19.53
2019-05-20T17:51:56.669Z,19.35
2019-05-20T17:54:24.157Z,19.18
2019-05-20T17:56:52.025Z,19.13
2019-05-20T17:59:19.489Z,19.27
2019-05-20T18:01:46.841Z,19.18
2019-05-20T18:04:14.449Z,19.06
2019-05-20T18:06:42.352Z,19.08
2019-05-20T18:09:09.946Z,19.03
2019-05-20T18:11:39.239Z,18.91
2019-05-20T18:14:06.629Z,18.80
2019-05-20T18:16:34.049Z,18.77
2019-05-20T18:19:01.514Z,18.75
2019-05-20T18:21:29.067Z,18.92
2019-05-20T18:23:56.959Z,18.80
2019-05-20T18:26:24.282Z,18.64
2019-05-20T18:28:51.752Z,18.61
2019-05-20T18:31:31.762Z,18.63
2019-05-20T18:33:49.037Z,18.86
2019-05-20T18:36:16.857Z,18.71
2019-05-20T18:38:49.233Z,18.61
2019-05-20T18:41:17.227Z,18.68
2019-05-20T18:43:44.965Z,18.71
2019-05-20T18:46:12.452Z,18.75
2019-05-20T18:48:40.257Z,18.55
2019-05-20T18:51:07.790Z,18.75
2019-05-20T18:53:36.189Z,18.72
2019-05-20T18:56:04.674Z,18.56
2019-05-20T18:58:32.616Z,18.73
2019-05-20T19:01:06.767Z,18.67
2019-05-20T19:03:34.669Z,18.42
2019-05-20T19:06:02.174Z,18.32
2019-05-20T19:08:29.654Z,18.28
2019-05-20T19:10:57.943Z,18.35
2019-05-20T19:13:25.693Z,18.35
2019-05-20T19:15:53.058Z,18.26
2019-05-20T19:18:22.155Z,18.05
2019-05-20T19:20:50.080Z,18.18
2019-05-20T19:23:17.889Z,18.04
2019-05-20T19:25:45.142Z,17.88
2019-05-20T19:28:13.633Z,18.03
2019-05-20T19:30:40.970Z,17.70
2019-05-20T19:33:09.004Z,17.88
2019-05-20T19:35:36.323Z,17.62
2019-05-20T19:38:03.583Z,17.90
2019-05-20T19:40:31.866Z,17.82
2019-05-20T19:42:59.561Z,17.75
2019-05-20T19:45:27.134Z,17.56
2019-05-20T19:47:54.454Z,17.57
2019-05-20T19:50:22.283Z,17.58
2019-05-20T19:52:49.694Z,17.53
2019-05-20T19:55:20.418Z,17.48
2019-05-20T19:57:49.654Z,17.64
2019-05-20T20:00:17.762Z,17.51
2019-05-20T20:02:46.998Z,17.58
2019-05-20T20:05:14.718Z,17.66
2019-05-20T20:07:42.329Z,17.47
2019-05-20T20:10:10.612Z,17.44
2019-05-20T20:12:38.137Z,17.44
2019-05-20T20:15:06.101Z,17.69
2019-05-20T20:17:34.519Z,17.68
2019-05-20T20:20:02.546Z,17.52
2019-05-20T20:22:30.171Z,17.40
2019-05-20T20:24:57.606Z,17.46
2019-05-20T20:27:25.070Z,17.68
2019-05-20T20:29:52.826Z,17.43
2019-05-20T20:32:35.214Z,17.41
2019-05-20T20:34:49.675Z,17.41
2019-05-20T20:37:18.071Z,17.57
2019-05-20T20:39:45.429Z,17.54
2019-05-20T20:42:12.813Z,17.34
2019-05-20T20:44:40.564Z,17.54
2019-05-20T20:47:07.899Z,17.48
2019-05-20T20:49:35.283Z,17.58
2019-05-20T20:52:02.628Z,17.56
2019-05-20T20:54:30.499Z,17.68
2019-05-20T20:56:58.875Z,17.65
2019-05-20T20:59:26.231Z,17.62
2019-05-20T21:01:58.767Z,17.65
2019-05-20T21:04:24.047Z,17.50
2019-05-20T21:06:51.468Z,17.47
2019-05-20T21:09:18.997Z,17.52
2019-05-20T21:11:46.707Z,17.39
2019-05-20T21:14:14.343Z,17.39
2019-05-20T21:16:41.631Z,17.43
2019-05-20T21:19:10.279Z,17.38
2019-05-20T21:21:37.602Z,17.29
2019-05-20T21:24:05.354Z,17.23
2019-05-20T21:26:32.916Z,17.19
2019-05-20T21:29:00.279Z,17.44
2019-05-20T21:31:28.260Z,17.36
2019-05-20T21:33:55.623Z,16.90
2019-05-20T21:36:22.980Z,16.87
2019-05-20T21:38:50.351Z,16.78
2019-05-20T21:41:18.526Z,16.83
2019-05-20T21:43:47.328Z,16.90
2019-05-20T21:46:14.699Z,16.98
2019-05-20T21:48:42.151Z,16.83
2019-05-20T21:51:10.912Z,16.50
2019-05-20T21:53:38.415Z,16.54
2019-05-20T21:56:05.876Z,16.64
2019-05-20T21:58:33.644Z,16.56
2019-05-20T22:01:01.625Z,16.36
2019-05-20T22:03:29.453Z,16.27
2019-05-20T22:05:57.235Z,16.35
2019-05-20T22:08:24.527Z,16.43
2019-05-20T22:10:52.323Z,16.63
2019-05-20T22:13:19.669Z,16.40
2019-05-20T22:15:47.035Z,16.29
2019-05-20T22:18:14.363Z,16.47
2019-05-20T22:20:42.388Z,16.19
2019-05-20T22:23:41.846Z,16.28
2019-05-20T22:26:09.303Z,16.14
2019-05-20T22:28:37.063Z,15.81
2019-05-20T22:31:04.679Z,15.80
2019-05-20T22:33:40.970Z,15.76
2019-05-20T22:36:01.587Z,15.87
2019-05-20T22:38:29.352Z,15.57
2019-05-20T22:41:06.306Z,15.41
2019-05-20T22:43:38.518Z,15.32
2019-05-20T22:46:06.577Z,15.59
2019-05-20T22:48:34.462Z,15.55
2019-05-20T22:51:01.953Z,15.19
2019-05-20T22:53:29.574Z,15.31
2019-05-20T22:55:57.252Z,15.30
2019-05-20T22:58:24.695Z,15.25
2019-05-20T23:00:52.924Z,15.06
2019-05-20T23:03:20.980Z,15.27
2019-05-20T23:05:49.240Z,15.28
2019-05-20T23:08:16.623Z,15.27
2019-05-20T23:10:44.004Z,15.16
2019-05-20T23:13:11.289Z,15.32
2019-05-20T23:15:39.232Z,15.34
2019-05-20T23:18:07.712Z,15.20
2019-05-20T23:20:35.277Z,15.30
2019-05-20T23:23:03.045Z,15.23
2019-05-20T23:25:31.734Z,15.23
2019-05-20T23:27:59.290Z,15.05
2019-05-20T23:30:26.745Z,15.02
2019-05-20T23:32:54.310Z,14.93
2019-05-20T23:35:23.342Z,15.09
2019-05-20T23:37:50.876Z,14.89
2019-05-20T23:40:18.276Z,14.90
2019-05-20T23:42:45.737Z,14.74
2019-05-20T23:45:13.897Z,14.65
2019-05-20T23:47:41.372Z,14.69
2019-05-20T23:50:09.085Z,14.75
2019-05-20T23:52:36.633Z,14.91
2019-05-20T23:55:05.486Z,14.92
2019-05-20T23:57:32.865Z,15.02
